<?xml version="1.0" encoding="utf-8"?>
<gpx xmlns:xsi="http://www.w3.org/2001/XMLSchema-instance" xmlns:xsd="http://www.w3.org/2001/XMLSchema" version="1.1" creator="Shapelink.com" xmlns="http://www.topografix.com/GPX/1/1" xmlns:gpxtpx="http://www.garmin.com/xmlschemas/TrackPointExtension/v1">
  <metadata>
    <name>Övrigt 2.39 km, 2019-07-29</name>
    <desc></desc>
    <author><name>Marian Moron</name></author> 
    <time>2019-07-29T13:01:52Z</time>
  </metadata>
  <trk>
    <name>Övrigt 2.39 km, 2019-07-29</name>
    <trkseg>
      <trkpt lat="54.260792494585" lon="16.056271080512">
        <ele>0</ele>
        <time>2019-07-29T13:01:52Z</time>
      </trkpt>
      <trkpt lat="54.261214690888" lon="16.05600973287">
        <ele>5.6</ele>
        <time>2019-07-29T13:02:59Z</time>
      </trkpt>
      <trkpt lat="54.261522306618" lon="16.055964638248">
        <ele>5.6</ele>
        <time>2019-07-29T13:05:51Z</time>
      </trkpt>
      <trkpt lat="54.261685669849" lon="16.055814937514">
        <ele>7</ele>
        <time>2019-07-29T13:06:17Z</time>
      </trkpt>
      <trkpt lat="54.261759849664" lon="16.055789372719">
        <ele>4.6</ele>
        <time>2019-07-29T13:06:27Z</time>
      </trkpt>
      <trkpt lat="54.261910975321" lon="16.055729023039">
        <ele>3.2</ele>
        <time>2019-07-29T13:06:50Z</time>
      </trkpt>
      <trkpt lat="54.262016168166" lon="16.055679988924">
        <ele>2.2</ele>
        <time>2019-07-29T13:07:04Z</time>
      </trkpt>
      <trkpt lat="54.262027399912" lon="16.055670433558">
        <ele>2.4</ele>
        <time>2019-07-29T13:07:06Z</time>
      </trkpt>
      <trkpt lat="54.262047181196" lon="16.055656771061">
        <ele>2.2</ele>
        <time>2019-07-29T13:07:09Z</time>
      </trkpt>
      <trkpt lat="54.26231339034" lon="16.055507405603">
        <ele>3.4</ele>
        <time>2019-07-29T13:07:54Z</time>
      </trkpt>
      <trkpt lat="54.262367621233" lon="16.055425933535">
        <ele>5</ele>
        <time>2019-07-29T13:08:03Z</time>
      </trkpt>
      <trkpt lat="54.262536432699" lon="16.055313867532">
        <ele>5.2</ele>
        <time>2019-07-29T13:08:25Z</time>
      </trkpt>
      <trkpt lat="54.26262603521" lon="16.055264917236">
        <ele>3.8</ele>
        <time>2019-07-29T13:08:36Z</time>
      </trkpt>
      <trkpt lat="54.26282133348" lon="16.055475386745">
        <ele>5</ele>
        <time>2019-07-29T13:10:41Z</time>
      </trkpt>
      <trkpt lat="54.26284228823" lon="16.055449402855">
        <ele>3.6</ele>
        <time>2019-07-29T13:10:44Z</time>
      </trkpt>
      <trkpt lat="54.262749416778" lon="16.055293667153">
        <ele>7.2</ele>
        <time>2019-07-29T13:12:19Z</time>
      </trkpt>
      <trkpt lat="54.262829883018" lon="16.055223007736">
        <ele>3.2</ele>
        <time>2019-07-29T13:13:08Z</time>
      </trkpt>
      <trkpt lat="54.262873468898" lon="16.055212362723">
        <ele>3.4</ele>
        <time>2019-07-29T13:13:13Z</time>
      </trkpt>
      <trkpt lat="54.262916719502" lon="16.055200292787">
        <ele>2.6</ele>
        <time>2019-07-29T13:13:40Z</time>
      </trkpt>
      <trkpt lat="54.262911606543" lon="16.055193922543">
        <ele>2.4</ele>
        <time>2019-07-29T13:13:48Z</time>
      </trkpt>
      <trkpt lat="54.26302333727" lon="16.055141032754">
        <ele>0.2</ele>
        <time>2019-07-29T13:14:32Z</time>
      </trkpt>
      <trkpt lat="54.263065833503" lon="16.055215464026">
        <ele>0.4</ele>
        <time>2019-07-29T13:14:53Z</time>
      </trkpt>
      <trkpt lat="54.263055356128" lon="16.055223678288">
        <ele>0</ele>
        <time>2019-07-29T13:16:37Z</time>
      </trkpt>
      <trkpt lat="54.263058205974" lon="16.055234239482">
        <ele>0.4</ele>
        <time>2019-07-29T13:16:53Z</time>
      </trkpt>
      <trkpt lat="54.263056194318" lon="16.055235077672">
        <ele>0.4</ele>
        <time>2019-07-29T13:16:54Z</time>
      </trkpt>
      <trkpt lat="54.263054015024" lon="16.055236586414">
        <ele>0.6</ele>
        <time>2019-07-29T13:16:57Z</time>
      </trkpt>
      <trkpt lat="54.263046890409" lon="16.055153186509">
        <ele>2.2</ele>
        <time>2019-07-29T13:19:17Z</time>
      </trkpt>
      <trkpt lat="54.263054685576" lon="16.05519333581">
        <ele>0</ele>
        <time>2019-07-29T13:19:51Z</time>
      </trkpt>
      <trkpt lat="54.263022163804" lon="16.055147486817">
        <ele>0</ele>
        <time>2019-07-29T13:22:58Z</time>
      </trkpt>
      <trkpt lat="54.262985031987" lon="16.055073307002">
        <ele>0</ele>
        <time>2019-07-29T13:26:55Z</time>
      </trkpt>
      <trkpt lat="54.263007998393" lon="16.055069451328">
        <ele>0</ele>
        <time>2019-07-29T13:28:31Z</time>
      </trkpt>
      <trkpt lat="54.26305267392" lon="16.055048999492">
        <ele>0</ele>
        <time>2019-07-29T13:29:30Z</time>
      </trkpt>
      <trkpt lat="54.26309542161" lon="16.055016393901">
        <ele>0</ele>
        <time>2019-07-29T13:29:36Z</time>
      </trkpt>
      <trkpt lat="54.263134397445" lon="16.054967192148">
        <ele>0</ele>
        <time>2019-07-29T13:29:42Z</time>
      </trkpt>
      <trkpt lat="54.263200027722" lon="16.054875242705">
        <ele>0</ele>
        <time>2019-07-29T13:30:30Z</time>
      </trkpt>
      <trkpt lat="54.263214612228" lon="16.054951266538">
        <ele>0.4</ele>
        <time>2019-07-29T13:31:39Z</time>
      </trkpt>
      <trkpt lat="54.263196423505" lon="16.054895862179">
        <ele>0</ele>
        <time>2019-07-29T13:32:31Z</time>
      </trkpt>
      <trkpt lat="54.263212935848" lon="16.054926120838">
        <ele>0</ele>
        <time>2019-07-29T13:32:34Z</time>
      </trkpt>
      <trkpt lat="54.263186197587" lon="16.054965012854">
        <ele>0</ele>
        <time>2019-07-29T13:32:41Z</time>
      </trkpt>
      <trkpt lat="54.263094667239" lon="16.05501983048">
        <ele>0.6</ele>
        <time>2019-07-29T13:32:53Z</time>
      </trkpt>
      <trkpt lat="54.263003136891" lon="16.055057129935">
        <ele>0</ele>
        <time>2019-07-29T13:34:59Z</time>
      </trkpt>
      <trkpt lat="54.263035491025" lon="16.055124352773">
        <ele>0</ele>
        <time>2019-07-29T13:35:41Z</time>
      </trkpt>
      <trkpt lat="54.263038592328" lon="16.055145307523">
        <ele>0</ele>
        <time>2019-07-29T13:36:48Z</time>
      </trkpt>
      <trkpt lat="54.263004310357" lon="16.055114965045">
        <ele>0</ele>
        <time>2019-07-29T13:37:32Z</time>
      </trkpt>
      <trkpt lat="54.262990228765" lon="16.055106415507">
        <ele>0</ele>
        <time>2019-07-29T13:40:28Z</time>
      </trkpt>
      <trkpt lat="54.262886963757" lon="16.055199035502">
        <ele>0.2</ele>
        <time>2019-07-29T13:41:06Z</time>
      </trkpt>
      <trkpt lat="54.262793254115" lon="16.054936514394">
        <ele>0.2</ele>
        <time>2019-07-29T13:41:43Z</time>
      </trkpt>
      <trkpt lat="54.262779340161" lon="16.054887983193">
        <ele>0.4</ele>
        <time>2019-07-29T13:41:47Z</time>
      </trkpt>
      <trkpt lat="54.262665011045" lon="16.054334274879">
        <ele>0.6</ele>
        <time>2019-07-29T13:42:35Z</time>
      </trkpt>
      <trkpt lat="54.262659478991" lon="16.05431239812">
        <ele>0.4</ele>
        <time>2019-07-29T13:42:37Z</time>
      </trkpt>
      <trkpt lat="54.262641709363" lon="16.054136964953">
        <ele>1.6</ele>
        <time>2019-07-29T13:42:50Z</time>
      </trkpt>
      <trkpt lat="54.262552358309" lon="16.053752403381">
        <ele>0.8</ele>
        <time>2019-07-29T13:43:25Z</time>
      </trkpt>
      <trkpt lat="54.262519333623" lon="16.053651150029">
        <ele>0</ele>
        <time>2019-07-29T13:43:34Z</time>
      </trkpt>
      <trkpt lat="54.262495193751" lon="16.053564229726">
        <ele>0</ele>
        <time>2019-07-29T13:43:46Z</time>
      </trkpt>
      <trkpt lat="54.262474825734" lon="16.053521733493">
        <ele>0</ele>
        <time>2019-07-29T13:43:51Z</time>
      </trkpt>
      <trkpt lat="54.262352701451" lon="16.052788652519">
        <ele>1</ele>
        <time>2019-07-29T13:45:02Z</time>
      </trkpt>
      <trkpt lat="54.262268882451" lon="16.052449772302">
        <ele>1</ele>
        <time>2019-07-29T13:46:34Z</time>
      </trkpt>
      <trkpt lat="54.262262009293" lon="16.052410125915">
        <ele>0</ele>
        <time>2019-07-29T13:50:22Z</time>
      </trkpt>
      <trkpt lat="54.262256477239" lon="16.052399480902">
        <ele>0</ele>
        <time>2019-07-29T13:50:29Z</time>
      </trkpt>
      <trkpt lat="54.262252789203" lon="16.052455891089">
        <ele>0</ele>
        <time>2019-07-29T13:50:33Z</time>
      </trkpt>
      <trkpt lat="54.262239545801" lon="16.052460165858">
        <ele>0</ele>
        <time>2019-07-29T13:51:01Z</time>
      </trkpt>
      <trkpt lat="54.262286735898" lon="16.052421273842">
        <ele>0.6</ele>
        <time>2019-07-29T13:52:26Z</time>
      </trkpt>
      <trkpt lat="54.262251112823" lon="16.052223293364">
        <ele>0.2</ele>
        <time>2019-07-29T13:52:42Z</time>
      </trkpt>
      <trkpt lat="54.262227978779" lon="16.052041070858">
        <ele>0.2</ele>
        <time>2019-07-29T13:53:06Z</time>
      </trkpt>
      <trkpt lat="54.262266032605" lon="16.0519671425">
        <ele>0.2</ele>
        <time>2019-07-29T13:53:14Z</time>
      </trkpt>
      <trkpt lat="54.262257985981" lon="16.051848706253">
        <ele>0.2</ele>
        <time>2019-07-29T13:53:40Z</time>
      </trkpt>
      <trkpt lat="54.262256728696" lon="16.051811658255">
        <ele>0.2</ele>
        <time>2019-07-29T13:53:42Z</time>
      </trkpt>
      <trkpt lat="54.262258153619" lon="16.051818363775">
        <ele>0.6</ele>
        <time>2019-07-29T13:53:55Z</time>
      </trkpt>
      <trkpt lat="54.262248514434" lon="16.051846359321">
        <ele>0</ele>
        <time>2019-07-29T13:54:04Z</time>
      </trkpt>
      <trkpt lat="54.262235187213" lon="16.051745273607">
        <ele>0</ele>
        <time>2019-07-29T13:54:36Z</time>
      </trkpt>
      <trkpt lat="54.262230577168" lon="16.051689617791">
        <ele>0</ele>
        <time>2019-07-29T13:54:41Z</time>
      </trkpt>
      <trkpt lat="54.262216411757" lon="16.051639074934">
        <ele>0</ele>
        <time>2019-07-29T13:54:46Z</time>
      </trkpt>
      <trkpt lat="54.262208281314" lon="16.051606469343">
        <ele>0</ele>
        <time>2019-07-29T13:54:50Z</time>
      </trkpt>
      <trkpt lat="54.2621826327" lon="16.051497504643">
        <ele>0</ele>
        <time>2019-07-29T13:55:00Z</time>
      </trkpt>
      <trkpt lat="54.262139717372" lon="16.051451404193">
        <ele>0</ele>
        <time>2019-07-29T13:55:10Z</time>
      </trkpt>
      <trkpt lat="54.262144327417" lon="16.051283766193">
        <ele>0</ele>
        <time>2019-07-29T13:55:47Z</time>
      </trkpt>
      <trkpt lat="54.262111638007" lon="16.05107949929">
        <ele>0</ele>
        <time>2019-07-29T13:56:05Z</time>
      </trkpt>
      <trkpt lat="54.262082217538" lon="16.05088671559">
        <ele>0</ele>
        <time>2019-07-29T13:56:20Z</time>
      </trkpt>
      <trkpt lat="54.26192363199" lon="16.050200908532">
        <ele>0</ele>
        <time>2019-07-29T13:57:35Z</time>
      </trkpt>
      <trkpt lat="54.261922626162" lon="16.050096470058">
        <ele>0</ele>
        <time>2019-07-29T13:57:56Z</time>
      </trkpt>
      <trkpt lat="54.261910807683" lon="16.049995803439">
        <ele>0.4</ele>
        <time>2019-07-29T13:59:57Z</time>
      </trkpt>
      <trkpt lat="54.261919692497" lon="16.050007705737">
        <ele>0</ele>
        <time>2019-07-29T14:00:56Z</time>
      </trkpt>
      <trkpt lat="54.261877782997" lon="16.050019775673">
        <ele>0</ele>
        <time>2019-07-29T14:01:52Z</time>
      </trkpt>
      <trkpt lat="54.261679131967" lon="16.050112730944">
        <ele>0.2</ele>
        <time>2019-07-29T14:02:22Z</time>
      </trkpt>
      <trkpt lat="54.261551894725" lon="16.050187916587">
        <ele>0</ele>
        <time>2019-07-29T14:02:38Z</time>
      </trkpt>
      <trkpt lat="54.26152381536" lon="16.050223874938">
        <ele>0</ele>
        <time>2019-07-29T14:02:43Z</time>
      </trkpt>
      <trkpt lat="54.261489365751" lon="16.050278860202">
        <ele>2</ele>
        <time>2019-07-29T14:03:17Z</time>
      </trkpt>
      <trkpt lat="54.261478217824" lon="16.050479019974">
        <ele>0</ele>
        <time>2019-07-29T14:03:51Z</time>
      </trkpt>
      <trkpt lat="54.261493472882" lon="16.050654704598">
        <ele>2.8</ele>
        <time>2019-07-29T14:04:13Z</time>
      </trkpt>
      <trkpt lat="54.261498334384" lon="16.050791916301">
        <ele>4.2</ele>
        <time>2019-07-29T14:04:24Z</time>
      </trkpt>
      <trkpt lat="54.261524234455" lon="16.050951172401">
        <ele>4.8</ele>
        <time>2019-07-29T14:04:44Z</time>
      </trkpt>
      <trkpt lat="54.261537729314" lon="16.051084109335">
        <ele>5.4</ele>
        <time>2019-07-29T14:04:55Z</time>
      </trkpt>
      <trkpt lat="54.261520965514" lon="16.051232804241">
        <ele>8.8</ele>
        <time>2019-07-29T14:05:11Z</time>
      </trkpt>
      <trkpt lat="54.261506297189" lon="16.051428437787">
        <ele>5.6</ele>
        <time>2019-07-29T14:05:28Z</time>
      </trkpt>
      <trkpt lat="54.261507219198" lon="16.051482501042">
        <ele>6</ele>
        <time>2019-07-29T14:05:32Z</time>
      </trkpt>
      <trkpt lat="54.261506548646" lon="16.051555758848">
        <ele>4.4</ele>
        <time>2019-07-29T14:05:38Z</time>
      </trkpt>
      <trkpt lat="54.261509733768" lon="16.051666902842">
        <ele>0</ele>
        <time>2019-07-29T14:05:49Z</time>
      </trkpt>
      <trkpt lat="54.261568658525" lon="16.052125057496">
        <ele>9.4</ele>
        <time>2019-07-29T14:07:25Z</time>
      </trkpt>
      <trkpt lat="54.261535633839" lon="16.052077448304">
        <ele>9.6</ele>
        <time>2019-07-29T14:10:11Z</time>
      </trkpt>
      <trkpt lat="54.261523899179" lon="16.052082728901">
        <ele>4.8</ele>
        <time>2019-07-29T14:13:33Z</time>
      </trkpt>
      <trkpt lat="54.261514176175" lon="16.052121537098">
        <ele>1.2</ele>
        <time>2019-07-29T14:13:51Z</time>
      </trkpt>
      <trkpt lat="54.261081753954" lon="16.05231415316">
        <ele>0</ele>
        <time>2019-07-29T14:15:18Z</time>
      </trkpt>
      <trkpt lat="54.260814371344" lon="16.052690249013">
        <ele>0</ele>
        <time>2019-07-29T14:16:47Z</time>
      </trkpt>
      <trkpt lat="54.260910344099" lon="16.053431376611">
        <ele>0</ele>
        <time>2019-07-29T14:17:46Z</time>
      </trkpt>
      <trkpt lat="54.260943871699" lon="16.053971673885">
        <ele>0</ele>
        <time>2019-07-29T14:18:41Z</time>
      </trkpt>
      <trkpt lat="54.261024589396" lon="16.054109220864">
        <ele>0</ele>
        <time>2019-07-29T14:18:55Z</time>
      </trkpt>
      <trkpt lat="54.261127770585" lon="16.054831908282">
        <ele>0</ele>
        <time>2019-07-29T14:20:20Z</time>
      </trkpt>
      <trkpt lat="54.261154592665" lon="16.054982614844">
        <ele>0</ele>
        <time>2019-07-29T14:20:33Z</time>
      </trkpt>
      <trkpt lat="54.26120027402" lon="16.055418892739">
        <ele>0</ele>
        <time>2019-07-29T14:21:09Z</time>
      </trkpt>
      <trkpt lat="54.261264563193" lon="16.055736818206">
        <ele>0</ele>
        <time>2019-07-29T14:21:35Z</time>
      </trkpt>
      <trkpt lat="54.26126146189" lon="16.055776464593">
        <ele>0</ele>
        <time>2019-07-29T14:21:38Z</time>
      </trkpt>
      <trkpt lat="54.261283673925" lon="16.055873191719">
        <ele>0</ele>
        <time>2019-07-29T14:21:45Z</time>
      </trkpt>
      <trkpt lat="54.261283925382" lon="16.055967907189">
        <ele>0</ele>
        <time>2019-07-29T14:21:52Z</time>
      </trkpt>
      <trkpt lat="54.261153838294" lon="16.056099335381">
        <ele>0</ele>
        <time>2019-07-29T14:22:14Z</time>
      </trkpt>
      <trkpt lat="54.260721751349" lon="16.056287425217">
        <ele>0</ele>
        <time>2019-07-29T14:23:10Z</time>
      </trkpt>
      <trkpt lat="54.260338782338" lon="16.056461265823">
        <ele>0</ele>
        <time>2019-07-29T14:24:25Z</time>
      </trkpt>
      <trkpt lat="54.260153207072" lon="16.056328915622">
        <ele>0</ele>
        <time>2019-07-29T14:26:25Z</time>
      </trkpt>
      <trkpt lat="54.260096210152" lon="16.056383900886">
        <ele>0</ele>
        <time>2019-07-29T14:26:45Z</time>
      </trkpt>
      <trkpt lat="54.259986323443" lon="16.056439137607">
        <ele>0</ele>
        <time>2019-07-29T14:27:00Z</time>
      </trkpt>
      <trkpt lat="54.259983557416" lon="16.056404604179">
        <ele>1.4</ele>
        <time>2019-07-29T14:30:25Z</time>
      </trkpt>
      <trkpt lat="54.260040051422" lon="16.056384990533">
        <ele>0.2</ele>
        <time>2019-07-29T14:30:50Z</time>
      </trkpt>
      <trkpt lat="54.260332328275" lon="16.056494793423">
        <ele>0</ele>
        <time>2019-07-29T14:31:58Z</time>
      </trkpt>
      <trkpt lat="54.259867132825" lon="16.056708867149">
        <ele>0</ele>
        <time>2019-07-29T14:32:16Z</time>
      </trkpt>
      <trkpt lat="54.259404954859" lon="16.056905338885">
        <ele>0</ele>
        <time>2019-07-29T14:32:25Z</time>
      </trkpt>
      <trkpt lat="54.259201274689" lon="16.057031570299">
        <ele>0</ele>
        <time>2019-07-29T14:32:53Z</time>
      </trkpt>
      <trkpt lat="54.259114102929" lon="16.056597471698">
        <ele>0</ele>
        <time>2019-07-29T14:33:25Z</time>
      </trkpt>
      <trkpt lat="54.259034726336" lon="16.055796245877">
        <ele>0</ele>
        <time>2019-07-29T14:33:33Z</time>
      </trkpt>
      <trkpt lat="54.258881169928" lon="16.05503827066">
        <ele>0</ele>
        <time>2019-07-29T14:33:42Z</time>
      </trkpt>
      <trkpt lat="54.258717136145" lon="16.054277026502">
        <ele>0</ele>
        <time>2019-07-29T14:33:49Z</time>
      </trkpt>
      <trkpt lat="54.258541367702" lon="16.05355635074">
        <ele>0</ele>
        <time>2019-07-29T14:34:01Z</time>
      </trkpt>
      <trkpt lat="54.258539775141" lon="16.053310006699">
        <ele>6.2</ele>
        <time>2019-07-29T14:34:39Z</time>
      </trkpt>
      <trkpt lat="54.258267111934" lon="16.052649596798">
        <ele>3.4</ele>
        <time>2019-07-29T14:34:47Z</time>
      </trkpt>
      <trkpt lat="54.258083799781" lon="16.052426135344">
        <ele>0</ele>
        <time>2019-07-29T14:34:53Z</time>
      </trkpt>
    </trkseg>
  </trk>
</gpx>